createdAt,value
2023-05-02T00:02:03.672Z,101343.31
2023-05-02T00:07:06.208Z,101351.50
2023-05-02T00:12:08.337Z,101352.31
2023-05-02T00:17:17.634Z,101349.56
2023-05-02T00:22:19.962Z,101358.41
2023-05-02T00:27:21.987Z,101360.28
2023-05-02T00:32:24.329Z,101355.75
2023-05-02T00:37:29.338Z,101370.03
2023-05-02T00:42:35.105Z,101370.97
2023-05-02T00:47:37.367Z,101383.50
2023-05-02T00:52:39.946Z,101389.59
2023-05-02T00:57:42.178Z,101392.16
2023-05-02T01:02:53.768Z,101393.16
2023-05-02T01:08:29.998Z,101405.69
2023-05-02T01:13:34.398Z,101402.94
2023-05-02T01:18:41.106Z,101409.16
2023-05-02T01:24:07.408Z,101412.78
2023-05-02T01:29:11.833Z,101413.59
2023-05-02T01:34:13.881Z,101405.59
2023-05-02T01:39:20.870Z,101411.88
2023-05-02T01:44:24.653Z,101404.69
2023-05-02T01:49:27.610Z,101402.00
2023-05-02T01:54:30.970Z,101403.88
2023-05-02T01:59:34.551Z,101408.19
2023-05-02T02:04:40.015Z,101413.59
2023-05-02T02:09:42.381Z,101412.72
2023-05-02T02:14:49.842Z,101418.00
2023-05-02T02:19:56.433Z,101424.19
2023-05-02T02:24:59.747Z,101423.28
2023-05-02T02:30:01.977Z,101433.13
2023-05-02T02:35:05.149Z,101432.97
2023-05-02T02:40:19.512Z,101430.47
2023-05-02T02:45:36.962Z,101428.72
2023-05-02T02:50:53.442Z,101437.50
2023-05-02T02:56:07.023Z,101438.38
2023-05-02T03:01:15.435Z,101440.19
2023-05-02T03:06:21.247Z,101447.31
2023-05-02T03:11:23.388Z,101454.44
2023-05-02T03:16:42.011Z,101452.69
2023-05-02T03:21:44.357Z,101460.41
2023-05-02T03:26:47.928Z,101462.28
2023-05-02T03:31:50.145Z,101465.00
2023-05-02T03:36:52.092Z,101477.53
2023-05-02T03:41:54.118Z,101478.44
2023-05-02T03:46:56.497Z,101489.09
2023-05-02T03:51:58.597Z,101489.28
2023-05-02T03:57:00.661Z,101505.13
2023-05-02T04:02:02.807Z,101506.94
2023-05-02T04:07:06.236Z,101519.38
2023-05-02T04:12:08.542Z,101519.38
2023-05-02T04:17:10.702Z,101529.19
2023-05-02T04:22:13.047Z,101541.66
2023-05-02T04:27:15.472Z,101542.50
2023-05-02T04:32:18.109Z,101555.78
2023-05-02T04:37:21.213Z,101550.50
2023-05-02T04:42:24.079Z,101554.97
2023-05-02T04:47:26.129Z,101563.88
2023-05-02T04:52:28.318Z,101567.50
2023-05-02T04:57:30.357Z,101567.44
2023-05-02T05:02:32.523Z,101574.53
2023-05-02T05:07:34.733Z,101585.28
2023-05-02T05:12:36.770Z,101593.19
2023-05-02T05:17:39.516Z,101595.81
2023-05-02T05:22:42.143Z,101598.53
2023-05-02T05:27:44.247Z,101607.31
2023-05-02T05:32:46.471Z,101610.88
2023-05-02T05:37:48.547Z,101617.25
2023-05-02T05:42:50.381Z,101628.72
2023-05-02T05:47:55.180Z,101634.22
2023-05-02T05:52:57.138Z,101635.13
2023-05-02T05:57:59.382Z,101646.50
2023-05-02T06:03:02.498Z,101650.97
2023-05-02T06:08:04.753Z,101661.97
2023-05-02T06:13:07.103Z,101657.28
2023-05-02T06:18:09.285Z,101660.00
2023-05-02T06:23:11.200Z,101670.88
2023-05-02T06:28:13.128Z,101672.63
2023-05-02T06:33:15.202Z,101684.94
2023-05-02T06:38:18.845Z,101691.13
2023-05-02T06:43:21.068Z,101706.91
2023-05-02T06:48:23.700Z,101724.72
2023-05-02T06:53:25.630Z,101723.97
2023-05-02T06:58:27.732Z,101730.94
2023-05-02T07:03:29.876Z,101733.50
2023-05-02T07:08:31.917Z,101744.47
2023-05-02T07:13:34.320Z,101749.75
2023-05-02T07:18:37.206Z,101758.53
2023-05-02T07:23:39.341Z,101766.34
2023-05-02T07:28:41.494Z,101768.97
2023-05-02T07:33:43.736Z,101792.00
2023-05-02T07:38:46.188Z,101791.03
2023-05-02T07:43:48.354Z,101792.88
2023-05-02T07:48:50.933Z,101799.06
2023-05-02T07:53:58.847Z,101808.94
2023-05-02T07:59:02.358Z,101807.88
2023-05-02T08:04:05.966Z,101815.94
2023-05-02T08:09:09.686Z,101813.94
2023-05-02T08:14:11.788Z,101814.13
2023-05-02T08:19:13.850Z,101803.47
2023-05-02T08:24:16.077Z,101816.94
2023-05-02T08:29:18.162Z,101820.50
2023-05-02T08:34:20.240Z,101829.31
2023-05-02T08:39:22.561Z,101831.81
2023-05-02T08:44:24.559Z,101835.66
2023-05-02T08:49:28.211Z,101840.72
2023-05-02T08:54:30.959Z,101842.84
2023-05-02T08:59:33.051Z,101848.34
2023-05-02T09:04:41.588Z,101853.75
2023-05-02T09:09:43.827Z,101858.03
2023-05-02T09:14:45.880Z,101866.13
2023-05-02T09:20:00.724Z,101864.75
2023-05-02T09:25:03.255Z,101874.56
2023-05-02T09:30:25.565Z,101880.66
2023-05-02T09:35:27.702Z,101884.03
2023-05-02T09:40:30.902Z,101892.84
2023-05-02T09:45:32.940Z,101905.25
2023-05-02T09:50:39.053Z,101917.09
2023-05-02T09:55:41.066Z,101913.34
2023-05-02T10:00:45.557Z,101917.72
2023-05-02T10:05:48.210Z,101923.16
2023-05-02T10:10:58.121Z,101923.28
2023-05-02T10:16:01.975Z,101930.28
2023-05-02T10:21:11.892Z,101928.69
2023-05-02T10:26:17.701Z,101931.16
2023-05-02T10:31:19.827Z,101933.88
2023-05-02T10:36:24.087Z,101936.72
2023-05-02T10:41:28.107Z,101936.66
2023-05-02T10:46:33.806Z,101929.44
2023-05-02T10:51:37.430Z,101933.94
2023-05-02T10:57:08.817Z,101939.28
2023-05-02T11:02:28.417Z,101929.25
2023-05-02T11:07:32.168Z,101924.59
2023-05-02T11:13:03.717Z,101927.44
2023-05-02T11:18:08.046Z,101924.72
2023-05-02T11:23:16.558Z,101926.41
2023-05-02T11:28:37.387Z,101929.94
2023-05-02T11:33:39.481Z,101936.97
2023-05-02T11:38:41.597Z,101932.50
2023-05-02T11:43:43.543Z,101937.78
2023-05-02T11:48:45.681Z,101940.44
2023-05-02T11:53:47.869Z,101940.50
2023-05-02T11:59:01.995Z,101943.25
2023-05-02T12:04:07.429Z,101954.81
2023-05-02T12:09:11.442Z,101960.94
2023-05-02T12:14:13.511Z,101955.53
2023-05-02T12:19:16.851Z,101960.94
2023-05-02T12:24:19.535Z,101971.63
2023-05-02T12:29:21.707Z,101972.53
2023-05-02T12:34:33.995Z,101968.94
2023-05-02T12:39:40.652Z,101964.44
2023-05-02T12:44:47.174Z,101973.38
2023-05-02T12:49:53.709Z,101979.72
2023-05-02T12:55:15.944Z,101981.47
2023-05-02T13:00:18.692Z,101975.16
2023-05-02T13:05:20.956Z,101974.38
2023-05-02T13:10:25.394Z,101990.38
2023-05-02T13:15:27.443Z,101990.38
2023-05-02T13:20:29.441Z,101992.69
2023-05-02T13:25:31.540Z,101981.56
2023-05-02T13:30:33.580Z,101995.34
2023-05-02T13:35:35.538Z,101994.09
2023-05-02T13:40:37.654Z,101998.19
2023-05-02T13:45:39.849Z,102001.06
2023-05-02T13:50:42.148Z,102005.75
2023-05-02T13:55:43.955Z,102010.09
2023-05-02T14:00:46.002Z,102000.47
2023-05-02T14:05:48.055Z,101999.63
2023-05-02T14:10:50.012Z,101991.50
2023-05-02T14:15:52.303Z,101997.56
2023-05-02T14:20:54.956Z,101987.97
2023-05-02T14:25:57.398Z,101990.72
2023-05-02T14:30:59.741Z,101984.59
2023-05-02T14:36:01.730Z,101977.19
2023-05-02T14:41:03.926Z,101981.91
2023-05-02T14:46:06.557Z,101976.44
2023-05-02T14:51:08.741Z,101972.44
2023-05-02T14:56:14.333Z,101971.63
2023-05-02T15:01:18.045Z,101978.00
2023-05-02T15:06:20.332Z,101979.03
2023-05-02T15:11:22.602Z,101985.28
2023-05-02T15:16:24.666Z,101982.00
2023-05-02T15:21:26.829Z,101985.38
2023-05-02T15:26:29.108Z,101985.13
2023-05-02T15:31:31.840Z,101972.84
2023-05-02T15:36:37.656Z,101974.47
2023-05-02T15:41:39.936Z,101974.28
2023-05-02T15:46:47.141Z,101977.81
2023-05-02T15:51:49.433Z,101983.44
2023-05-02T15:56:51.595Z,101983.72
2023-05-02T16:01:54.022Z,101986.00
2023-05-02T16:06:56.581Z,101986.00
2023-05-02T16:11:58.762Z,101989.34
2023-05-02T16:17:01.488Z,101981.34
2023-05-02T16:22:04.205Z,101977.88
2023-05-02T16:27:06.099Z,101986.75
2023-05-02T16:32:08.823Z,101992.13
2023-05-02T16:37:11.932Z,101987.00
2023-05-02T16:42:14.120Z,101993.19
2023-05-02T16:47:16.190Z,101997.66
2023-05-02T16:52:18.776Z,101995.91
2023-05-02T16:57:21.710Z,101991.56
2023-05-02T17:02:23.996Z,101997.75
2023-05-02T17:07:26.107Z,102003.16
2023-05-02T17:12:28.649Z,101998.75
2023-05-02T17:17:31.400Z,102000.47
2023-05-02T17:22:35.221Z,101998.34
2023-05-02T17:27:40.583Z,101992.38
2023-05-02T17:32:43.275Z,102002.06
2023-05-02T17:37:45.378Z,102000.94
2023-05-02T17:42:47.822Z,102004.72
2023-05-02T17:47:50.114Z,101998.38
2023-05-02T17:52:52.564Z,102008.31
2023-05-02T17:57:54.652Z,102013.75
2023-05-02T18:02:57.622Z,102019.53
2023-05-02T18:07:59.924Z,102020.72
2023-05-02T18:13:01.995Z,102018.06
2023-05-02T18:18:04.380Z,102021.56
2023-05-02T18:23:06.314Z,102022.75
2023-05-02T18:28:08.364Z,102025.66
2023-05-02T18:33:10.349Z,102029.88
2023-05-02T18:38:13.136Z,102029.91
2023-05-02T18:43:15.381Z,102025.38
2023-05-02T18:48:17.743Z,102033.28
2023-05-02T18:53:23.014Z,102034.22
2023-05-02T18:58:25.256Z,102041.41
2023-05-02T19:03:27.646Z,102062.81
2023-05-02T19:08:30.043Z,102065.44
2023-05-02T19:13:33.089Z,102062.69
2023-05-02T19:18:35.690Z,102070.72
2023-05-02T19:23:38.234Z,102068.09
2023-05-02T19:28:40.702Z,102070.00
2023-05-02T19:33:50.447Z,102080.78
2023-05-02T19:38:54.512Z,102090.47
2023-05-02T19:43:59.148Z,102094.16
2023-05-02T19:49:01.180Z,102097.59
2023-05-02T19:54:03.444Z,102098.66
2023-05-02T19:59:05.549Z,102111.06
2023-05-02T20:04:07.565Z,102124.91
2023-05-02T20:09:09.597Z,102112.66
2023-05-02T20:14:11.817Z,102130.53
2023-05-02T20:19:14.518Z,102131.44
2023-05-02T20:24:16.834Z,102126.97
2023-05-02T20:29:18.705Z,102143.06
2023-05-02T20:34:21.175Z,102144.91
2023-05-02T20:39:23.711Z,102147.44
2023-05-02T20:44:26.729Z,102153.03
2023-05-02T20:49:34.768Z,102149.78
2023-05-02T20:54:36.693Z,102151.03
2023-05-02T20:59:39.148Z,102148.16
2023-05-02T21:04:42.602Z,102151.66
2023-05-02T21:09:44.666Z,102151.53
2023-05-02T21:14:46.659Z,102154.06
2023-05-02T21:19:48.672Z,102164.69
2023-05-02T21:24:51.240Z,102167.31
2023-05-02T21:29:53.429Z,102158.53
2023-05-02T21:34:55.750Z,102167.47
2023-05-02T21:39:58.054Z,102170.88
2023-05-02T21:45:00.056Z,102167.28
2023-05-02T21:50:02.445Z,102171.88
2023-05-02T21:55:04.824Z,102174.50
2023-05-02T22:00:09.484Z,102186.88
2023-05-02T22:05:11.890Z,102188.81
2023-05-02T22:10:14.172Z,102194.00
2023-05-02T22:15:16.131Z,102179.00
2023-05-02T22:20:18.634Z,102178.03
2023-05-02T22:25:21.232Z,102185.16
2023-05-02T22:30:23.255Z,102185.19
2023-05-02T22:35:25.402Z,102177.19
2023-05-02T22:40:27.422Z,102169.16
2023-05-02T22:45:29.422Z,102174.59
2023-05-02T22:50:31.332Z,102171.09
2023-05-02T22:55:33.512Z,102169.19
2023-05-02T23:00:36.086Z,102170.19
2023-05-02T23:05:38.699Z,102169.41
2023-05-02T23:10:40.787Z,102163.25
2023-05-02T23:15:43.836Z,102163.34
2023-05-02T23:20:45.866Z,102157.19
2023-05-02T23:25:47.912Z,102158.06
2023-05-02T23:30:50.225Z,102161.41
2023-05-02T23:35:53.052Z,102159.56
2023-05-02T23:40:55.458Z,102159.91
2023-05-02T23:45:57.530Z,102162.63
2023-05-02T23:50:59.497Z,102161.75
2023-05-02T23:56:01.582Z,102160.06
